sensor_id;sensor_type;location;lat;lon;timestamp;P1;durP1;ratioP1;P2;durP2;ratioP2
56667;SDS011;42542;48.360;10.958;2023-05-03T00:01:14;14.80;;;6.22;;
56667;SDS011;42542;48.360;10.958;2023-05-03T00:04:16;12.13;;;5.83;;
56667;SDS011;42542;48.360;10.958;2023-05-03T00:07:19;12.73;;;5.70;;
56667;SDS011;42542;48.360;10.958;2023-05-03T00:10:23;11.45;;;5.68;;
56667;SDS011;42542;48.360;10.958;2023-05-03T00:13:25;11.93;;;5.80;;
56667;SDS011;42542;48.360;10.958;2023-05-03T00:16:27;12.60;;;5.57;;
56667;SDS011;42542;48.360;10.958;2023-05-03T00:19:29;12.65;;;5.60;;
56667;SDS011;42542;48.360;10.958;2023-05-03T00:22:34;12.93;;;5.90;;
56667;SDS011;42542;48.360;10.958;2023-05-03T00:25:37;13.40;;;6.50;;
56667;SDS011;42542;48.360;10.958;2023-05-03T00:28:39;12.77;;;6.13;;
56667;SDS011;42542;48.360;10.958;2023-05-03T00:31:44;12.70;;;6.03;;
56667;SDS011;42542;48.360;10.958;2023-05-03T00:34:46;13.47;;;6.03;;
56667;SDS011;42542;48.360;10.958;2023-05-03T00:37:52;13.52;;;6.32;;
56667;SDS011;42542;48.360;10.958;2023-05-03T00:40:55;13.10;;;6.47;;
56667;SDS011;42542;48.360;10.958;2023-05-03T00:43:57;13.52;;;6.40;;
56667;SDS011;42542;48.360;10.958;2023-05-03T00:46:58;13.43;;;6.18;;
56667;SDS011;42542;48.360;10.958;2023-05-03T00:50:02;12.88;;;6.18;;
56667;SDS011;42542;48.360;10.958;2023-05-03T00:53:05;13.00;;;5.80;;
56667;SDS011;42542;48.360;10.958;2023-05-03T00:56:07;12.90;;;6.10;;
56667;SDS011;42542;48.360;10.958;2023-05-03T00:59:10;13.93;;;6.32;;
56667;SDS011;42542;48.360;10.958;2023-05-03T01:02:13;14.45;;;6.65;;
56667;SDS011;42542;48.360;10.958;2023-05-03T01:05:15;14.30;;;6.43;;
56667;SDS011;42542;48.360;10.958;2023-05-03T01:12:03;14.90;;;6.88;;
56667;SDS011;42542;48.360;10.958;2023-05-03T01:18:36;14.45;;;6.70;;
56667;SDS011;42542;48.360;10.958;2023-05-03T01:21:41;16.40;;;7.10;;
56667;SDS011;42542;48.360;10.958;2023-05-03T01:24:50;14.32;;;6.75;;
56667;SDS011;42542;48.360;10.958;2023-05-03T01:27:56;14.47;;;7.00;;
56667;SDS011;42542;48.360;10.958;2023-05-03T01:30:58;14.68;;;6.55;;
56667;SDS011;42542;48.360;10.958;2023-05-03T01:37:26;14.17;;;6.60;;
56667;SDS011;42542;48.360;10.958;2023-05-03T01:40:29;15.40;;;6.75;;
56667;SDS011;42542;48.360;10.958;2023-05-03T01:43:33;16.17;;;7.60;;
56667;SDS011;42542;48.360;10.958;2023-05-03T01:46:41;17.45;;;6.70;;
56667;SDS011;42542;48.360;10.958;2023-05-03T01:49:45;18.10;;;6.13;;
56667;SDS011;42542;48.360;10.958;2023-05-03T01:52:48;15.35;;;6.82;;
56667;SDS011;42542;48.360;10.958;2023-05-03T01:55:53;18.50;;;6.75;;
56667;SDS011;42542;48.360;10.958;2023-05-03T01:58:55;14.17;;;6.63;;
56667;SDS011;42542;48.360;10.958;2023-05-03T02:01:56;14.88;;;6.85;;
56667;SDS011;42542;48.360;10.958;2023-05-03T02:04:59;14.80;;;6.70;;
56667;SDS011;42542;48.360;10.958;2023-05-03T02:08:01;13.10;;;6.67;;
56667;SDS011;42542;48.360;10.958;2023-05-03T02:11:04;13.70;;;6.80;;
56667;SDS011;42542;48.360;10.958;2023-05-03T02:14:06;14.38;;;6.78;;
56667;SDS011;42542;48.360;10.958;2023-05-03T02:17:09;14.25;;;7.05;;
56667;SDS011;42542;48.360;10.958;2023-05-03T02:20:11;15.05;;;7.18;;
56667;SDS011;42542;48.360;10.958;2023-05-03T02:23:13;14.27;;;6.65;;
56667;SDS011;42542;48.360;10.958;2023-05-03T02:26:16;14.05;;;6.82;;
56667;SDS011;42542;48.360;10.958;2023-05-03T02:29:18;15.43;;;6.70;;
56667;SDS011;42542;48.360;10.958;2023-05-03T02:32:20;14.43;;;7.15;;
56667;SDS011;42542;48.360;10.958;2023-05-03T02:35:22;15.32;;;7.05;;
56667;SDS011;42542;48.360;10.958;2023-05-03T02:38:25;15.33;;;7.60;;
56667;SDS011;42542;48.360;10.958;2023-05-03T02:41:27;16.33;;;7.15;;
56667;SDS011;42542;48.360;10.958;2023-05-03T02:44:30;17.02;;;7.95;;
56667;SDS011;42542;48.360;10.958;2023-05-03T02:47:34;27.83;;;8.13;;
56667;SDS011;42542;48.360;10.958;2023-05-03T02:50:36;18.33;;;8.25;;
56667;SDS011;42542;48.360;10.958;2023-05-03T02:53:39;18.98;;;8.77;;
56667;SDS011;42542;48.360;10.958;2023-05-03T02:56:41;21.17;;;8.55;;
56667;SDS011;42542;48.360;10.958;2023-05-03T02:59:43;19.87;;;8.30;;
56667;SDS011;42542;48.360;10.958;2023-05-03T03:02:45;17.80;;;8.48;;
56667;SDS011;42542;48.360;10.958;2023-05-03T03:05:48;21.25;;;8.35;;
56667;SDS011;42542;48.360;10.958;2023-05-03T03:08:50;19.33;;;8.30;;
56667;SDS011;42542;48.360;10.958;2023-05-03T03:11:51;23.33;;;9.15;;
56667;SDS011;42542;48.360;10.958;2023-05-03T03:14:55;21.08;;;8.80;;
56667;SDS011;42542;48.360;10.958;2023-05-03T03:17:58;19.55;;;8.68;;
56667;SDS011;42542;48.360;10.958;2023-05-03T03:21:00;22.23;;;9.00;;
56667;SDS011;42542;48.360;10.958;2023-05-03T03:24:05;17.35;;;8.25;;
56667;SDS011;42542;48.360;10.958;2023-05-03T03:27:07;20.33;;;8.57;;
56667;SDS011;42542;48.360;10.958;2023-05-03T03:30:09;18.70;;;8.27;;
56667;SDS011;42542;48.360;10.958;2023-05-03T03:33:21;20.00;;;8.48;;
56667;SDS011;42542;48.360;10.958;2023-05-03T03:36:30;17.88;;;8.13;;
56667;SDS011;42542;48.360;10.958;2023-05-03T03:39:32;17.90;;;8.63;;
56667;SDS011;42542;48.360;10.958;2023-05-03T03:42:34;18.88;;;8.63;;
56667;SDS011;42542;48.360;10.958;2023-05-03T03:45:37;19.70;;;8.90;;
56667;SDS011;42542;48.360;10.958;2023-05-03T03:48:39;20.02;;;9.05;;
56667;SDS011;42542;48.360;10.958;2023-05-03T03:51:41;19.50;;;9.15;;
56667;SDS011;42542;48.360;10.958;2023-05-03T03:54:44;23.75;;;9.85;;
56667;SDS011;42542;48.360;10.958;2023-05-03T03:57:46;19.98;;;9.23;;
56667;SDS011;42542;48.360;10.958;2023-05-03T04:00:49;21.47;;;9.23;;
56667;SDS011;42542;48.360;10.958;2023-05-03T04:03:55;22.88;;;9.73;;
56667;SDS011;42542;48.360;10.958;2023-05-03T04:06:57;22.63;;;9.52;;
56667;SDS011;42542;48.360;10.958;2023-05-03T04:10:01;21.07;;;9.17;;
56667;SDS011;42542;48.360;10.958;2023-05-03T04:13:04;22.95;;;10.25;;
56667;SDS011;42542;48.360;10.958;2023-05-03T04:16:06;23.35;;;9.93;;
56667;SDS011;42542;48.360;10.958;2023-05-03T04:19:10;20.45;;;9.68;;
56667;SDS011;42542;48.360;10.958;2023-05-03T04:22:14;21.50;;;9.88;;
56667;SDS011;42542;48.360;10.958;2023-05-03T04:25:16;22.60;;;9.52;;
56667;SDS011;42542;48.360;10.958;2023-05-03T04:28:26;22.63;;;9.57;;
56667;SDS011;42542;48.360;10.958;2023-05-03T04:31:27;21.30;;;9.20;;
56667;SDS011;42542;48.360;10.958;2023-05-03T04:34:31;21.48;;;10.15;;
56667;SDS011;42542;48.360;10.958;2023-05-03T04:37:37;21.17;;;9.50;;
56667;SDS011;42542;48.360;10.958;2023-05-03T04:40:39;21.83;;;9.70;;
56667;SDS011;42542;48.360;10.958;2023-05-03T04:43:43;20.73;;;9.23;;
56667;SDS011;42542;48.360;10.958;2023-05-03T04:46:45;20.75;;;9.68;;
56667;SDS011;42542;48.360;10.958;2023-05-03T04:49:51;21.90;;;9.60;;
56667;SDS011;42542;48.360;10.958;2023-05-03T04:52:54;21.92;;;9.93;;
56667;SDS011;42542;48.360;10.958;2023-05-03T04:55:59;21.80;;;9.82;;
56667;SDS011;42542;48.360;10.958;2023-05-03T04:59:03;21.33;;;9.85;;
56667;SDS011;42542;48.360;10.958;2023-05-03T05:02:07;22.50;;;10.17;;
56667;SDS011;42542;48.360;10.958;2023-05-03T05:05:09;21.42;;;9.68;;
56667;SDS011;42542;48.360;10.958;2023-05-03T05:08:12;21.73;;;10.02;;
56667;SDS011;42542;48.360;10.958;2023-05-03T05:11:21;21.47;;;9.40;;
56667;SDS011;42542;48.360;10.958;2023-05-03T05:14:25;20.35;;;9.65;;
56667;SDS011;42542;48.360;10.958;2023-05-03T05:17:29;21.13;;;9.00;;
56667;SDS011;42542;48.360;10.958;2023-05-03T05:20:34;21.25;;;9.55;;
56667;SDS011;42542;48.360;10.958;2023-05-03T05:23:38;25.15;;;10.85;;
56667;SDS011;42542;48.360;10.958;2023-05-03T05:26:45;20.67;;;9.63;;
56667;SDS011;42542;48.360;10.958;2023-05-03T05:29:49;23.15;;;10.40;;
56667;SDS011;42542;48.360;10.958;2023-05-03T05:32:52;20.43;;;9.93;;
56667;SDS011;42542;48.360;10.958;2023-05-03T05:35:54;23.42;;;10.27;;
56667;SDS011;42542;48.360;10.958;2023-05-03T05:38:57;23.38;;;10.18;;
56667;SDS011;42542;48.360;10.958;2023-05-03T05:41:59;21.63;;;9.53;;
56667;SDS011;42542;48.360;10.958;2023-05-03T05:45:02;21.30;;;10.25;;
56667;SDS011;42542;48.360;10.958;2023-05-03T05:48:04;20.73;;;9.98;;
56667;SDS011;42542;48.360;10.958;2023-05-03T05:51:08;23.20;;;9.80;;
56667;SDS011;42542;48.360;10.958;2023-05-03T05:54:10;20.40;;;8.82;;
56667;SDS011;42542;48.360;10.958;2023-05-03T05:57:12;19.42;;;9.48;;
56667;SDS011;42542;48.360;10.958;2023-05-03T06:00:15;20.75;;;9.60;;
56667;SDS011;42542;48.360;10.958;2023-05-03T06:03:18;19.43;;;9.30;;
56667;SDS011;42542;48.360;10.958;2023-05-03T06:06:24;20.00;;;8.95;;
56667;SDS011;42542;48.360;10.958;2023-05-03T06:09:28;21.27;;;8.93;;
56667;SDS011;42542;48.360;10.958;2023-05-03T06:12:35;22.27;;;9.57;;
56667;SDS011;42542;48.360;10.958;2023-05-03T06:15:44;22.15;;;9.98;;
56667;SDS011;42542;48.360;10.958;2023-05-03T06:18:47;21.63;;;9.82;;
56667;SDS011;42542;48.360;10.958;2023-05-03T06:21:49;20.92;;;9.55;;
56667;SDS011;42542;48.360;10.958;2023-05-03T06:24:50;20.83;;;9.40;;
56667;SDS011;42542;48.360;10.958;2023-05-03T06:27:55;23.35;;;10.18;;
56667;SDS011;42542;48.360;10.958;2023-05-03T06:31:03;22.08;;;9.55;;
56667;SDS011;42542;48.360;10.958;2023-05-03T06:34:08;23.70;;;9.37;;
56667;SDS011;42542;48.360;10.958;2023-05-03T06:37:15;22.63;;;9.85;;
56667;SDS011;42542;48.360;10.958;2023-05-03T06:40:19;21.63;;;9.70;;
56667;SDS011;42542;48.360;10.958;2023-05-03T06:43:25;22.03;;;9.43;;
56667;SDS011;42542;48.360;10.958;2023-05-03T06:46:31;22.83;;;9.90;;
56667;SDS011;42542;48.360;10.958;2023-05-03T06:49:33;22.77;;;10.10;;
56667;SDS011;42542;48.360;10.958;2023-05-03T06:52:36;22.75;;;9.77;;
56667;SDS011;42542;48.360;10.958;2023-05-03T06:55:38;21.90;;;10.50;;
56667;SDS011;42542;48.360;10.958;2023-05-03T06:58:44;24.88;;;10.30;;
56667;SDS011;42542;48.360;10.958;2023-05-03T07:01:45;22.60;;;9.80;;
56667;SDS011;42542;48.360;10.958;2023-05-03T07:04:48;21.70;;;9.77;;
56667;SDS011;42542;48.360;10.958;2023-05-03T07:07:50;24.00;;;10.15;;
56667;SDS011;42542;48.360;10.958;2023-05-03T07:10:52;21.80;;;10.38;;
56667;SDS011;42542;48.360;10.958;2023-05-03T07:13:54;21.87;;;9.87;;
56667;SDS011;42542;48.360;10.958;2023-05-03T07:16:57;22.52;;;10.02;;
56667;SDS011;42542;48.360;10.958;2023-05-03T07:20:01;21.65;;;10.07;;
56667;SDS011;42542;48.360;10.958;2023-05-03T07:23:05;21.90;;;9.95;;
56667;SDS011;42542;48.360;10.958;2023-05-03T07:26:07;21.25;;;10.02;;
56667;SDS011;42542;48.360;10.958;2023-05-03T07:29:09;23.83;;;10.40;;
56667;SDS011;42542;48.360;10.958;2023-05-03T07:32:11;21.88;;;9.80;;
56667;SDS011;42542;48.360;10.958;2023-05-03T07:35:14;22.27;;;9.40;;
56667;SDS011;42542;48.360;10.958;2023-05-03T07:38:18;21.70;;;9.88;;
56667;SDS011;42542;48.360;10.958;2023-05-03T07:41:19;22.30;;;10.38;;
56667;SDS011;42542;48.360;10.958;2023-05-03T07:44:22;23.07;;;10.37;;
56667;SDS011;42542;48.360;10.958;2023-05-03T07:47:24;21.95;;;10.32;;
56667;SDS011;42542;48.360;10.958;2023-05-03T07:50:29;22.17;;;10.63;;
56667;SDS011;42542;48.360;10.958;2023-05-03T07:53:31;21.45;;;9.88;;
56667;SDS011;42542;48.360;10.958;2023-05-03T07:56:35;22.67;;;10.23;;
56667;SDS011;42542;48.360;10.958;2023-05-03T07:59:38;20.75;;;10.05;;
56667;SDS011;42542;48.360;10.958;2023-05-03T08:02:40;20.25;;;9.70;;
56667;SDS011;42542;48.360;10.958;2023-05-03T08:05:42;20.47;;;9.83;;
56667;SDS011;42542;48.360;10.958;2023-05-03T08:08:44;20.73;;;9.98;;
56667;SDS011;42542;48.360;10.958;2023-05-03T08:11:47;23.08;;;10.50;;
56667;SDS011;42542;48.360;10.958;2023-05-03T08:14:49;20.40;;;9.93;;
56667;SDS011;42542;48.360;10.958;2023-05-03T08:17:54;21.67;;;9.82;;
56667;SDS011;42542;48.360;10.958;2023-05-03T08:20:56;21.55;;;9.70;;
56667;SDS011;42542;48.360;10.958;2023-05-03T08:23:59;21.13;;;9.68;;
56667;SDS011;42542;48.360;10.958;2023-05-03T08:27:01;21.40;;;10.07;;
56667;SDS011;42542;48.360;10.958;2023-05-03T08:30:05;21.25;;;10.38;;
56667;SDS011;42542;48.360;10.958;2023-05-03T08:33:09;21.33;;;10.20;;
56667;SDS011;42542;48.360;10.958;2023-05-03T08:36:12;21.10;;;9.90;;
56667;SDS011;42542;48.360;10.958;2023-05-03T08:39:14;21.45;;;9.90;;
56667;SDS011;42542;48.360;10.958;2023-05-03T08:42:18;21.05;;;10.02;;
56667;SDS011;42542;48.360;10.958;2023-05-03T08:45:19;22.37;;;9.77;;
56667;SDS011;42542;48.360;10.958;2023-05-03T08:48:22;22.13;;;10.45;;
56667;SDS011;42542;48.360;10.958;2023-05-03T08:51:24;22.70;;;10.35;;
56667;SDS011;42542;48.360;10.958;2023-05-03T08:54:29;23.13;;;10.63;;
56667;SDS011;42542;48.360;10.958;2023-05-03T08:57:32;20.90;;;9.45;;
56667;SDS011;42542;48.360;10.958;2023-05-03T09:00:36;20.25;;;10.35;;
56667;SDS011;42542;48.360;10.958;2023-05-03T09:03:38;21.10;;;10.25;;
56667;SDS011;42542;48.360;10.958;2023-05-03T09:06:41;20.80;;;10.13;;
56667;SDS011;42542;48.360;10.958;2023-05-03T09:09:42;19.27;;;9.38;;
56667;SDS011;42542;48.360;10.958;2023-05-03T09:12:48;22.65;;;10.27;;
56667;SDS011;42542;48.360;10.958;2023-05-03T09:15:59;19.42;;;9.80;;
56667;SDS011;42542;48.360;10.958;2023-05-03T09:19:04;20.58;;;9.88;;
56667;SDS011;42542;48.360;10.958;2023-05-03T09:22:09;20.15;;;9.65;;
56667;SDS011;42542;48.360;10.958;2023-05-03T09:25:13;20.13;;;10.05;;
56667;SDS011;42542;48.360;10.958;2023-05-03T09:28:15;20.33;;;9.77;;
56667;SDS011;42542;48.360;10.958;2023-05-03T09:31:19;19.17;;;9.65;;
56667;SDS011;42542;48.360;10.958;2023-05-03T09:34:20;19.08;;;10.15;;
56667;SDS011;42542;48.360;10.958;2023-05-03T09:37:34;20.40;;;10.27;;
56667;SDS011;42542;48.360;10.958;2023-05-03T09:40:47;19.17;;;9.73;;
56667;SDS011;42542;48.360;10.958;2023-05-03T09:43:51;18.98;;;9.43;;
56667;SDS011;42542;48.360;10.958;2023-05-03T09:47:01;20.00;;;9.50;;
56667;SDS011;42542;48.360;10.958;2023-05-03T09:50:08;20.08;;;9.70;;
56667;SDS011;42542;48.360;10.958;2023-05-03T09:53:11;19.77;;;9.55;;
56667;SDS011;42542;48.360;10.958;2023-05-03T09:56:16;19.27;;;9.77;;
56667;SDS011;42542;48.360;10.958;2023-05-03T09:59:21;20.80;;;9.67;;
56667;SDS011;42542;48.360;10.958;2023-05-03T10:02:24;17.92;;;9.10;;
56667;SDS011;42542;48.360;10.958;2023-05-03T10:05:29;19.20;;;9.27;;
56667;SDS011;42542;48.360;10.958;2023-05-03T10:08:37;18.17;;;9.40;;
56667;SDS011;42542;48.360;10.958;2023-05-03T10:11:53;18.13;;;9.32;;
56667;SDS011;42542;48.360;10.958;2023-05-03T10:14:59;18.00;;;9.32;;
56667;SDS011;42542;48.360;10.958;2023-05-03T10:18:07;18.75;;;9.10;;
56667;SDS011;42542;48.360;10.958;2023-05-03T10:21:17;17.57;;;9.10;;
56667;SDS011;42542;48.360;10.958;2023-05-03T10:24:26;17.20;;;8.98;;
56667;SDS011;42542;48.360;10.958;2023-05-03T10:30:49;17.20;;;8.52;;
56667;SDS011;42542;48.360;10.958;2023-05-03T10:33:52;16.33;;;8.50;;
56667;SDS011;42542;48.360;10.958;2023-05-03T10:36:56;17.42;;;8.55;;
56667;SDS011;42542;48.360;10.958;2023-05-03T10:40:10;16.45;;;8.55;;
56667;SDS011;42542;48.360;10.958;2023-05-03T10:46:30;16.43;;;8.53;;
56667;SDS011;42542;48.360;10.958;2023-05-03T10:49:35;16.02;;;7.93;;
56667;SDS011;42542;48.360;10.958;2023-05-03T10:55:39;17.52;;;8.38;;
56667;SDS011;42542;48.360;10.958;2023-05-03T10:59:01;16.45;;;8.35;;
56667;SDS011;42542;48.360;10.958;2023-05-03T11:02:05;17.30;;;8.50;;
56667;SDS011;42542;48.360;10.958;2023-05-03T11:05:18;16.38;;;8.45;;
56667;SDS011;42542;48.360;10.958;2023-05-03T11:08:25;14.73;;;8.03;;
56667;SDS011;42542;48.360;10.958;2023-05-03T11:11:28;14.68;;;8.40;;
56667;SDS011;42542;48.360;10.958;2023-05-03T11:14:32;13.75;;;7.45;;
56667;SDS011;42542;48.360;10.958;2023-05-03T11:17:36;13.85;;;7.68;;
56667;SDS011;42542;48.360;10.958;2023-05-03T11:20:40;15.97;;;7.77;;
56667;SDS011;42542;48.360;10.958;2023-05-03T11:24:02;13.60;;;7.20;;
56667;SDS011;42542;48.360;10.958;2023-05-03T11:27:24;15.43;;;7.95;;
56667;SDS011;42542;48.360;10.958;2023-05-03T11:30:31;16.17;;;7.40;;
56667;SDS011;42542;48.360;10.958;2023-05-03T11:33:36;13.60;;;7.10;;
56667;SDS011;42542;48.360;10.958;2023-05-03T11:36:41;13.90;;;7.38;;
56667;SDS011;42542;48.360;10.958;2023-05-03T11:39:45;13.88;;;7.22;;
56667;SDS011;42542;48.360;10.958;2023-05-03T11:42:54;13.23;;;7.30;;
56667;SDS011;42542;48.360;10.958;2023-05-03T11:45:59;12.77;;;6.80;;
56667;SDS011;42542;48.360;10.958;2023-05-03T11:49:03;13.43;;;6.70;;
56667;SDS011;42542;48.360;10.958;2023-05-03T11:52:09;12.02;;;6.50;;
56667;SDS011;42542;48.360;10.958;2023-05-03T11:55:11;12.73;;;6.93;;
56667;SDS011;42542;48.360;10.958;2023-05-03T11:58:19;13.45;;;6.75;;
56667;SDS011;42542;48.360;10.958;2023-05-03T12:01:23;12.45;;;6.63;;
56667;SDS011;42542;48.360;10.958;2023-05-03T12:04:26;12.83;;;6.60;;
56667;SDS011;42542;48.360;10.958;2023-05-03T12:07:28;13.45;;;6.82;;
56667;SDS011;42542;48.360;10.958;2023-05-03T12:10:32;12.43;;;6.47;;
56667;SDS011;42542;48.360;10.958;2023-05-03T12:13:36;13.45;;;7.15;;
56667;SDS011;42542;48.360;10.958;2023-05-03T12:16:47;13.68;;;7.07;;
56667;SDS011;42542;48.360;10.958;2023-05-03T12:20:09;13.48;;;6.50;;
56667;SDS011;42542;48.360;10.958;2023-05-03T12:23:39;11.80;;;6.72;;
56667;SDS011;42542;48.360;10.958;2023-05-03T12:26:46;12.90;;;6.60;;
56667;SDS011;42542;48.360;10.958;2023-05-03T12:29:50;13.48;;;7.43;;
56667;SDS011;42542;48.360;10.958;2023-05-03T12:32:53;11.97;;;6.70;;
56667;SDS011;42542;48.360;10.958;2023-05-03T12:35:58;12.65;;;6.97;;
56667;SDS011;42542;48.360;10.958;2023-05-03T12:39:05;12.50;;;7.28;;
56667;SDS011;42542;48.360;10.958;2023-05-03T12:42:10;13.13;;;7.03;;
56667;SDS011;42542;48.360;10.958;2023-05-03T12:45:16;11.82;;;6.65;;
56667;SDS011;42542;48.360;10.958;2023-05-03T12:48:22;13.15;;;6.53;;
56667;SDS011;42542;48.360;10.958;2023-05-03T12:51:25;12.15;;;6.38;;
56667;SDS011;42542;48.360;10.958;2023-05-03T12:54:33;9.57;;;5.00;;
56667;SDS011;42542;48.360;10.958;2023-05-03T12:57:36;9.50;;;5.18;;
56667;SDS011;42542;48.360;10.958;2023-05-03T13:00:40;10.63;;;5.37;;
56667;SDS011;42542;48.360;10.958;2023-05-03T13:04:02;9.98;;;4.90;;
56667;SDS011;42542;48.360;10.958;2023-05-03T13:07:07;10.48;;;5.22;;
56667;SDS011;42542;48.360;10.958;2023-05-03T13:10:16;10.88;;;5.68;;
56667;SDS011;42542;48.360;10.958;2023-05-03T13:13:24;12.35;;;5.60;;
56667;SDS011;42542;48.360;10.958;2023-05-03T13:16:26;10.60;;;5.93;;
56667;SDS011;42542;48.360;10.958;2023-05-03T13:19:29;10.65;;;5.35;;
56667;SDS011;42542;48.360;10.958;2023-05-03T13:22:30;9.50;;;5.32;;
56667;SDS011;42542;48.360;10.958;2023-05-03T13:25:33;9.25;;;5.28;;
56667;SDS011;42542;48.360;10.958;2023-05-03T13:28:35;9.55;;;5.50;;
56667;SDS011;42542;48.360;10.958;2023-05-03T13:31:38;11.03;;;5.33;;
56667;SDS011;42542;48.360;10.958;2023-05-03T13:34:40;9.48;;;5.15;;
56667;SDS011;42542;48.360;10.958;2023-05-03T13:37:42;10.35;;;5.40;;
56667;SDS011;42542;48.360;10.958;2023-05-03T13:40:45;9.73;;;5.30;;
56667;SDS011;42542;48.360;10.958;2023-05-03T13:43:47;10.55;;;5.65;;
56667;SDS011;42542;48.360;10.958;2023-05-03T13:46:49;9.70;;;5.20;;
56667;SDS011;42542;48.360;10.958;2023-05-03T13:49:55;9.20;;;5.15;;
56667;SDS011;42542;48.360;10.958;2023-05-03T13:52:57;9.07;;;4.97;;
56667;SDS011;42542;48.360;10.958;2023-05-03T13:56:00;10.30;;;5.22;;
56667;SDS011;42542;48.360;10.958;2023-05-03T13:59:02;10.00;;;5.63;;
56667;SDS011;42542;48.360;10.958;2023-05-03T14:02:05;8.93;;;5.07;;
56667;SDS011;42542;48.360;10.958;2023-05-03T14:05:07;8.40;;;4.80;;
56667;SDS011;42542;48.360;10.958;2023-05-03T14:08:11;9.02;;;4.80;;
56667;SDS011;42542;48.360;10.958;2023-05-03T14:11:13;8.20;;;4.63;;
56667;SDS011;42542;48.360;10.958;2023-05-03T14:14:17;8.70;;;4.60;;
56667;SDS011;42542;48.360;10.958;2023-05-03T14:17:20;7.43;;;4.37;;
56667;SDS011;42542;48.360;10.958;2023-05-03T14:20:23;8.83;;;4.20;;
56667;SDS011;42542;48.360;10.958;2023-05-03T14:23:25;9.45;;;4.72;;
56667;SDS011;42542;48.360;10.958;2023-05-03T14:26:28;8.00;;;4.22;;
56667;SDS011;42542;48.360;10.958;2023-05-03T14:29:32;8.52;;;4.82;;
56667;SDS011;42542;48.360;10.958;2023-05-03T14:32:35;7.30;;;4.03;;
56667;SDS011;42542;48.360;10.958;2023-05-03T14:35:39;7.53;;;3.80;;
56667;SDS011;42542;48.360;10.958;2023-05-03T14:38:44;8.43;;;5.03;;
56667;SDS011;42542;48.360;10.958;2023-05-03T14:41:47;7.53;;;4.20;;
56667;SDS011;42542;48.360;10.958;2023-05-03T14:44:51;8.15;;;4.72;;
56667;SDS011;42542;48.360;10.958;2023-05-03T14:47:53;8.60;;;4.80;;
56667;SDS011;42542;48.360;10.958;2023-05-03T14:50:57;7.30;;;4.27;;
56667;SDS011;42542;48.360;10.958;2023-05-03T14:53:59;7.65;;;4.10;;
56667;SDS011;42542;48.360;10.958;2023-05-03T14:57:04;7.13;;;4.10;;
56667;SDS011;42542;48.360;10.958;2023-05-03T15:00:08;7.10;;;4.20;;
56667;SDS011;42542;48.360;10.958;2023-05-03T15:03:16;7.63;;;4.07;;
56667;SDS011;42542;48.360;10.958;2023-05-03T15:06:23;7.60;;;4.17;;
56667;SDS011;42542;48.360;10.958;2023-05-03T15:09:33;7.28;;;3.95;;
56667;SDS011;42542;48.360;10.958;2023-05-03T15:12:36;7.57;;;4.40;;
56667;SDS011;42542;48.360;10.958;2023-05-03T15:15:40;7.65;;;4.28;;
56667;SDS011;42542;48.360;10.958;2023-05-03T15:18:46;8.43;;;4.57;;
56667;SDS011;42542;48.360;10.958;2023-05-03T15:21:49;8.43;;;4.60;;
56667;SDS011;42542;48.360;10.958;2023-05-03T15:24:52;7.78;;;4.28;;
56667;SDS011;42542;48.360;10.958;2023-05-03T15:28:02;6.28;;;3.65;;
56667;SDS011;42542;48.360;10.958;2023-05-03T15:31:07;7.05;;;3.60;;
56667;SDS011;42542;48.360;10.958;2023-05-03T15:34:09;8.93;;;3.60;;
56667;SDS011;42542;48.360;10.958;2023-05-03T15:37:15;7.00;;;3.97;;
56667;SDS011;42542;48.360;10.958;2023-05-03T15:40:17;6.57;;;3.47;;
56667;SDS011;42542;48.360;10.958;2023-05-03T15:43:19;6.10;;;2.90;;
56667;SDS011;42542;48.360;10.958;2023-05-03T15:46:22;5.32;;;2.67;;
56667;SDS011;42542;48.360;10.958;2023-05-03T15:49:25;6.23;;;3.00;;
56667;SDS011;42542;48.360;10.958;2023-05-03T15:52:27;6.73;;;3.53;;
56667;SDS011;42542;48.360;10.958;2023-05-03T15:55:34;6.47;;;3.58;;
56667;SDS011;42542;48.360;10.958;2023-05-03T15:58:37;6.68;;;3.47;;
56667;SDS011;42542;48.360;10.958;2023-05-03T16:01:39;8.68;;;3.00;;
56667;SDS011;42542;48.360;10.958;2023-05-03T16:04:41;6.50;;;3.20;;
56667;SDS011;42542;48.360;10.958;2023-05-03T16:07:43;6.33;;;3.53;;
56667;SDS011;42542;48.360;10.958;2023-05-03T16:10:47;6.25;;;3.30;;
56667;SDS011;42542;48.360;10.958;2023-05-03T16:13:50;7.07;;;3.30;;
56667;SDS011;42542;48.360;10.958;2023-05-03T16:16:52;8.10;;;3.50;;
56667;SDS011;42542;48.360;10.958;2023-05-03T16:19:54;6.83;;;3.77;;
56667;SDS011;42542;48.360;10.958;2023-05-03T16:22:57;6.80;;;3.70;;
56667;SDS011;42542;48.360;10.958;2023-05-03T16:26:10;7.22;;;3.33;;
56667;SDS011;42542;48.360;10.958;2023-05-03T16:29:14;7.18;;;3.33;;
56667;SDS011;42542;48.360;10.958;2023-05-03T16:32:17;6.53;;;3.40;;
56667;SDS011;42542;48.360;10.958;2023-05-03T16:35:19;7.17;;;3.90;;
56667;SDS011;42542;48.360;10.958;2023-05-03T16:38:21;6.90;;;3.90;;
56667;SDS011;42542;48.360;10.958;2023-05-03T16:41:25;7.70;;;3.70;;
56667;SDS011;42542;48.360;10.958;2023-05-03T16:44:27;6.80;;;3.70;;
56667;SDS011;42542;48.360;10.958;2023-05-03T16:47:31;7.22;;;3.90;;
56667;SDS011;42542;48.360;10.958;2023-05-03T16:50:35;6.63;;;3.57;;
56667;SDS011;42542;48.360;10.958;2023-05-03T16:53:48;7.07;;;3.87;;
56667;SDS011;42542;48.360;10.958;2023-05-03T16:56:50;8.52;;;4.57;;
56667;SDS011;42542;48.360;10.958;2023-05-03T16:59:57;8.20;;;4.60;;
56667;SDS011;42542;48.360;10.958;2023-05-03T17:03:06;9.43;;;4.07;;
56667;SDS011;42542;48.360;10.958;2023-05-03T17:06:11;6.93;;;3.80;;
56667;SDS011;42542;48.360;10.958;2023-05-03T17:09:15;7.40;;;3.88;;
56667;SDS011;42542;48.360;10.958;2023-05-03T17:12:17;7.40;;;3.65;;
56667;SDS011;42542;48.360;10.958;2023-05-03T17:15:19;11.27;;;4.00;;
56667;SDS011;42542;48.360;10.958;2023-05-03T17:18:21;8.25;;;3.83;;
56667;SDS011;42542;48.360;10.958;2023-05-03T17:21:23;8.43;;;3.90;;
56667;SDS011;42542;48.360;10.958;2023-05-03T17:24:25;6.88;;;3.78;;
56667;SDS011;42542;48.360;10.958;2023-05-03T17:27:29;8.60;;;3.97;;
56667;SDS011;42542;48.360;10.958;2023-05-03T17:30:32;7.35;;;3.50;;
56667;SDS011;42542;48.360;10.958;2023-05-03T17:33:35;7.20;;;3.53;;
56667;SDS011;42542;48.360;10.958;2023-05-03T17:36:36;6.57;;;3.37;;
56667;SDS011;42542;48.360;10.958;2023-05-03T17:39:38;7.10;;;3.38;;
56667;SDS011;42542;48.360;10.958;2023-05-03T17:42:44;6.65;;;3.65;;
56667;SDS011;42542;48.360;10.958;2023-05-03T17:45:48;6.88;;;3.53;;
56667;SDS011;42542;48.360;10.958;2023-05-03T17:48:55;6.70;;;3.50;;
56667;SDS011;42542;48.360;10.958;2023-05-03T17:52:04;6.50;;;3.43;;
56667;SDS011;42542;48.360;10.958;2023-05-03T17:55:08;9.00;;;4.00;;
56667;SDS011;42542;48.360;10.958;2023-05-03T17:58:13;8.48;;;4.63;;
56667;SDS011;42542;48.360;10.958;2023-05-03T18:01:24;9.18;;;4.80;;
56667;SDS011;42542;48.360;10.958;2023-05-03T18:04:26;8.50;;;4.35;;
56667;SDS011;42542;48.360;10.958;2023-05-03T18:07:32;7.97;;;4.30;;
56667;SDS011;42542;48.360;10.958;2023-05-03T18:10:34;9.00;;;4.50;;
56667;SDS011;42542;48.360;10.958;2023-05-03T18:13:38;8.13;;;4.53;;
56667;SDS011;42542;48.360;10.958;2023-05-03T18:16:43;9.10;;;4.72;;
56667;SDS011;42542;48.360;10.958;2023-05-03T18:19:45;8.80;;;4.70;;